Time;durP1;ratioP1;P1;durP2;ratioP2;P2;SDS_P1;SDS_P2;PMS_P1;PMS_P2;Temp;Humidity;BMP_temperature;BMP_pressure;BME280_temperature;BME280_humidity;BME280_pressure;Samples;Min_cycle;Max_cycle;Signal;HPM_P1;HPM_P2
2024/04/11 00:02:14;;;;;;;4.57;1.35;;;;;;;;;;5463273;26;20808;-70
2024/04/11 00:04:40;;;;;;;6.10;1.40;;;;;;;;;;5469843;26;20249;-70
2024/04/11 00:07:06;;;;;;;9.93;1.88;;;;;;;;;;5464007;26;20237;-70
2024/04/11 00:09:31;;;;;;;5.90;1.40;;;;;;;;;;5443599;26;20269;-70
2024/04/11 00:11:57;;;;;;;7.13;1.20;;;;;;;;;;5461577;26;20657;-70
2024/04/11 00:14:22;;;;;;;6.07;1.40;;;;;;;;;;5466963;26;20249;-70
2024/04/11 00:16:48;;;;;;;2.08;1.00;;;;;;;;;;5433715;26;20241;-70
2024/04/11 00:19:13;;;;;;;6.97;1.30;;;;;;;;;;5450898;26;20287;-70
2024/04/11 00:21:38;;;;;;;5.38;1.42;;;;;;;;;;5463734;26;20780;-71
2024/04/11 00:24:05;;;;;;;4.00;1.23;;;;;;;;;;5463255;26;20431;-71
2024/04/11 00:26:30;;;;;;;8.25;1.70;;;;;;;;;;5472523;26;20301;-70
2024/04/11 00:28:55;;;;;;;7.47;1.30;;;;;;;;;;5457059;26;20252;-70
2024/04/11 00:31:21;;;;;;;5.25;1.40;;;;;;;;;;5470592;25;20248;-70
2024/04/11 00:33:56;;;;;;;9.95;1.63;;;;;;;;;;5456642;26;20319;-71
2024/04/11 00:36:25;;;;;;;5.10;1.20;;;;;;;;;;5448268;26;20272;-70
2024/04/11 00:38:51;;;;;;;5.40;1.50;;;;;;;;;;5465043;26;20744;-70
2024/04/11 00:41:19;;;;;;;6.45;1.60;;;;;;;;;;5448774;26;20775;-70
2024/04/11 00:43:45;;;;;;;7.03;1.40;;;;;;;;;;5472509;26;20949;-70
2024/04/11 00:46:11;;;;;;;6.75;1.67;;;;;;;;;;5460298;26;20292;-70
2024/04/11 00:48:39;;;;;;;4.45;1.33;;;;;;;;;;5452754;26;20285;-71
2024/04/11 00:51:07;;;;;;;7.40;1.13;;;;;;;;;;5465310;26;20462;-70
2024/04/11 00:53:32;;;;;;;4.95;1.40;;;;;;;;;;5464013;26;20229;-70
2024/04/11 00:55:58;;;;;;;10.88;1.58;;;;;;;;;;5477209;26;20759;-70
2024/04/11 00:58:25;;;;;;;5.95;2.03;;;;;;;;;;5492049;25;20233;-71
2024/04/11 01:00:52;;;;;;;5.85;1.40;;;;;;;;;;5472936;26;20609;-70
2024/04/11 01:03:18;;;;;;;4.10;1.38;;;;;;;;;;5479421;26;20233;-70
2024/04/11 01:05:43;;;;;;;6.57;1.88;;;;;;;;;;5482889;26;20556;-71
2024/04/11 01:08:09;;;;;;;8.45;1.30;;;;;;;;;;5477380;26;20697;-71
2024/04/11 01:10:34;;;;;;;8.23;2.35;;;;;;;;;;5465984;26;20233;-71
2024/04/11 01:13:02;;;;;;;6.13;1.80;;;;;;;;;;5458184;26;20800;-71
2024/04/11 01:15:27;;;;;;;7.80;1.40;;;;;;;;;;5474831;26;20236;-71
2024/04/11 01:17:53;;;;;;;11.35;1.50;;;;;;;;;;5482505;25;20259;-71
2024/04/11 01:20:18;;;;;;;6.43;1.20;;;;;;;;;;5472629;26;20840;-71
2024/04/11 01:22:44;;;;;;;4.90;1.40;;;;;;;;;;5481282;26;20317;-71
2024/04/11 01:25:09;;;;;;;4.25;1.30;;;;;;;;;;5480994;26;20440;-71
2024/04/11 01:27:35;;;;;;;6.63;1.60;;;;;;;;;;5466724;26;20244;-70
2024/04/11 01:30:04;;;;;;;4.95;1.20;;;;;;;;;;5468160;26;20312;-70
2024/04/11 01:32:30;;;;;;;6.30;1.27;;;;;;;;;;5475827;26;20645;-70
2024/04/11 01:34:56;;;;;;;4.68;1.50;;;;;;;;;;5472201;26;20249;-70
2024/04/11 01:37:23;;;;;;;8.82;1.65;;;;;;;;;;5482839;26;20751;-71
2024/04/11 01:39:49;;;;;;;6.43;1.40;;;;;;;;;;5474601;26;20253;-70
2024/04/11 01:42:14;;;;;;;7.80;1.52;;;;;;;;;;5472163;26;20822;-71
2024/04/11 01:44:39;;;;;;;7.43;1.48;;;;;;;;;;5474465;26;20244;-70
2024/04/11 01:47:05;;;;;;;7.90;1.98;;;;;;;;;;5458885;26;20245;-70
2024/04/11 01:49:31;;;;;;;8.95;1.35;;;;;;;;;;5462453;26;20751;-69
2024/04/11 01:51:57;;;;;;;7.78;1.67;;;;;;;;;;5463376;26;20249;-70
2024/04/11 01:54:23;;;;;;;6.15;1.38;;;;;;;;;;5476148;26;20750;-70
2024/04/11 01:56:49;;;;;;;5.35;1.60;;;;;;;;;;5468757;26;20283;-70
2024/04/11 01:59:16;;;;;;;7.25;1.73;;;;;;;;;;5477918;26;20250;-70
2024/04/11 02:01:42;;;;;;;6.88;1.30;;;;;;;;;;5468785;26;20592;-70
2024/04/11 02:04:09;;;;;;;8.45;1.60;;;;;;;;;;5459553;26;20355;-70
2024/04/11 02:06:39;;;;;;;6.32;0.98;;;;;;;;;;5458323;26;20255;-70
2024/04/11 02:09:09;;;;;;;5.88;1.17;;;;;;;;;;5463184;26;20346;-70
2024/04/11 02:11:46;;;;;;;7.10;1.38;;;;;;;;;;5460161;26;20237;-70
2024/04/11 02:14:12;;;;;;;4.05;1.25;;;;;;;;;;5468559;26;20292;-70
2024/04/11 02:16:38;;;;;;;8.55;1.10;;;;;;;;;;5475573;26;20233;-70
2024/04/11 02:19:07;;;;;;;6.45;1.73;;;;;;;;;;5485220;26;20287;-70
2024/04/11 02:21:40;;;;;;;10.75;1.77;;;;;;;;;;5486362;26;20230;-69
2024/04/11 02:24:06;;;;;;;6.80;1.50;;;;;;;;;;5460489;26;20241;-70
2024/04/11 02:26:34;;;;;;;5.60;1.70;;;;;;;;;;5447187;26;20276;-70
2024/04/11 02:29:00;;;;;;;8.05;1.40;;;;;;;;;;5486416;26;20281;-70
2024/04/11 02:31:26;;;;;;;7.10;1.60;;;;;;;;;;5497069;26;20227;-70
2024/04/11 02:33:53;;;;;;;6.97;1.67;;;;;;;;;;5476436;26;20830;-69
2024/04/11 02:36:19;;;;;;;6.22;1.40;;;;;;;;;;5451159;26;20473;-69
2024/04/11 02:38:45;;;;;;;5.72;1.30;;;;;;;;;;5458514;26;20288;-69
2024/04/11 02:41:10;;;;;;;7.40;1.77;;;;;;;;;;5463796;26;20701;-70
2024/04/11 02:43:39;;;;;;;5.35;1.17;;;;;;;;;;5461473;26;20256;-70
2024/04/11 02:46:15;;;;;;;8.88;1.70;;;;;;;;;;5462937;26;20804;-70
2024/04/11 02:48:44;;;;;;;6.32;1.75;;;;;;;;;;5517291;25;20308;-69
2024/04/11 02:51:10;;;;;;;5.82;1.38;;;;;;;;;;5483227;25;20640;-70
2024/04/11 02:53:38;;;;;;;8.82;1.88;;;;;;;;;;5468247;26;20672;-70
2024/04/11 02:56:07;;;;;;;6.13;1.30;;;;;;;;;;5450338;26;20560;-70
2024/04/11 02:58:33;;;;;;;5.05;1.38;;;;;;;;;;5485578;26;20329;-69
2024/04/11 03:01:01;;;;;;;10.30;1.73;;;;;;;;;;5476881;26;20229;-69
2024/04/11 03:03:26;;;;;;;5.57;1.70;;;;;;;;;;5454357;26;20283;-69
2024/04/11 03:05:51;;;;;;;5.03;1.50;;;;;;;;;;5470218;26;20689;-69
2024/04/11 03:08:19;;;;;;;5.43;1.23;;;;;;;;;;5487600;26;20301;-69
2024/04/11 03:10:44;;;;;;;4.25;1.45;;;;;;;;;;5489713;26;20325;-70
2024/04/11 03:13:10;;;;;;;3.75;1.23;;;;;;;;;;5479733;26;20307;-70
2024/04/11 03:15:36;;;;;;;6.55;1.52;;;;;;;;;;5473138;26;20606;-70
2024/04/11 03:18:01;;;;;;;9.07;1.55;;;;;;;;;;5462237;26;20248;-70
2024/04/11 03:20:27;;;;;;;8.35;1.25;;;;;;;;;;5475115;26;20287;-69
2024/04/11 03:22:52;;;;;;;4.15;1.05;;;;;;;;;;5460466;26;20284;-70
2024/04/11 03:25:18;;;;;;;9.25;1.52;;;;;;;;;;5475635;26;20236;-70
2024/04/11 03:27:44;;;;;;;6.03;1.40;;;;;;;;;;5465914;26;20246;-70
2024/04/11 03:30:10;;;;;;;6.30;1.50;;;;;;;;;;5466703;25;20245;-69
2024/04/11 03:32:35;;;;;;;5.72;1.30;;;;;;;;;;5472131;26;20241;-70
2024/04/11 03:35:01;;;;;;;7.18;1.20;;;;;;;;;;5461553;26;20279;-70
2024/04/11 03:37:27;;;;;;;6.97;1.60;;;;;;;;;;5469273;26;20242;-70
2024/04/11 03:39:53;;;;;;;7.35;1.35;;;;;;;;;;5477701;26;20712;-70
2024/04/11 03:42:18;;;;;;;6.90;1.45;;;;;;;;;;5472210;26;20239;-70
2024/04/11 03:44:48;;;;;;;5.50;1.30;;;;;;;;;;5446875;26;20336;-70
2024/04/11 03:47:14;;;;;;;6.13;1.40;;;;;;;;;;5473951;26;20328;-71
2024/04/11 03:49:39;;;;;;;4.43;1.38;;;;;;;;;;5462012;26;20317;-70
2024/04/11 03:52:05;;;;;;;9.13;1.48;;;;;;;;;;5501229;25;20236;-70
2024/04/11 03:54:31;;;;;;;5.65;1.27;;;;;;;;;;5495629;26;20317;-70
2024/04/11 03:56:56;;;;;;;4.78;1.70;;;;;;;;;;5498112;26;20236;-69
2024/04/11 03:59:22;;;;;;;6.35;1.55;;;;;;;;;;5470762;26;20242;-70
2024/04/11 04:01:47;;;;;;;6.32;1.60;;;;;;;;;;5455521;26;20233;-70
2024/04/11 04:04:13;;;;;;;7.75;1.85;;;;;;;;;;5470626;26;20730;-70
2024/04/11 04:06:38;;;;;;;7.82;1.60;;;;;;;;;;5464501;26;20236;-70
2024/04/11 04:09:10;;;;;;;5.63;1.73;;;;;;;;;;5478136;26;21093;-70
2024/04/11 04:11:36;;;;;;;8.73;1.50;;;;;;;;;;5473870;26;20236;-70
2024/04/11 04:14:03;;;;;;;9.88;1.50;;;;;;;;;;5456683;26;20701;-70
2024/04/11 04:16:28;;;;;;;7.60;1.73;;;;;;;;;;5455789;26;20342;-70
2024/04/11 04:18:54;;;;;;;9.90;1.50;;;;;;;;;;5452142;26;20253;-70
2024/04/11 04:21:20;;;;;;;4.28;1.45;;;;;;;;;;5466014;25;20236;-69
2024/04/11 04:23:54;;;;;;;6.97;1.52;;;;;;;;;;5465537;26;20244;-71
2024/04/11 04:26:21;;;;;;;7.22;1.73;;;;;;;;;;5461772;26;20701;-71
2024/04/11 04:28:48;;;;;;;5.68;1.45;;;;;;;;;;5478813;26;20579;-70
2024/04/11 04:31:17;;;;;;;10.15;1.73;;;;;;;;;;5434151;26;20242;-70
2024/04/11 04:33:48;;;;;;;8.23;1.73;;;;;;;;;;5472504;26;20271;-70
2024/04/11 04:36:26;;;;;;;7.32;1.10;;;;;;;;;;5493839;26;20274;-70
2024/04/11 04:38:53;;;;;;;4.93;1.38;;;;;;;;;;5480729;26;20240;-70
2024/04/11 04:41:20;;;;;;;4.40;1.20;;;;;;;;;;5441799;26;20321;-70
2024/04/11 04:43:57;;;;;;;7.03;1.35;;;;;;;;;;5460053;26;20261;-70
2024/04/11 04:46:28;;;;;;;7.15;1.63;;;;;;;;;;5471231;26;20584;-70
2024/04/11 04:48:55;;;;;;;6.53;1.50;;;;;;;;;;5474246;26;20766;-70
2024/04/11 04:51:23;;;;;;;5.05;1.20;;;;;;;;;;5467897;26;20236;-71
2024/04/11 04:53:52;;;;;;;4.95;1.23;;;;;;;;;;5458514;26;20295;-70
2024/04/11 04:56:23;;;;;;;9.52;1.60;;;;;;;;;;5483703;26;20278;-70
2024/04/11 04:58:51;;;;;;;12.35;1.98;;;;;;;;;;5487992;26;20768;-70
2024/04/11 05:01:17;;;;;;;8.23;1.52;;;;;;;;;;5478767;26;20252;-70
2024/04/11 05:03:45;;;;;;;7.70;1.42;;;;;;;;;;5461432;25;20319;-69
2024/04/11 05:06:13;;;;;;;5.30;1.58;;;;;;;;;;5468979;26;20273;-70
2024/04/11 05:08:46;;;;;;;7.90;1.58;;;;;;;;;;5478050;26;20242;-70
2024/04/11 05:11:12;;;;;;;8.57;1.55;;;;;;;;;;5459537;26;20241;-69
2024/04/11 05:13:43;;;;;;;4.30;1.00;;;;;;;;;;5464046;26;20341;-70
2024/04/11 05:16:09;;;;;;;7.18;1.92;;;;;;;;;;5426672;26;20883;-69
2024/04/11 05:18:38;;;;;;;7.00;1.30;;;;;;;;;;5472436;26;20292;-71
2024/04/11 05:21:07;;;;;;;4.05;1.50;;;;;;;;;;5460349;26;20238;-70
2024/04/11 05:23:38;;;;;;;6.75;1.60;;;;;;;;;;5444190;26;20330;-70
2024/04/11 05:26:09;;;;;;;8.27;1.60;;;;;;;;;;5462551;26;20249;-70
2024/04/11 05:28:35;;;;;;;4.97;1.48;;;;;;;;;;5490473;25;20241;-70
2024/04/11 05:31:04;;;;;;;11.32;1.50;;;;;;;;;;5482691;26;20249;-70
2024/04/11 05:33:35;;;;;;;6.07;1.30;;;;;;;;;;5517276;25;20300;-70
2024/04/11 05:36:01;;;;;;;8.20;1.63;;;;;;;;;;5461450;26;20244;-70
2024/04/11 05:38:27;;;;;;;7.97;1.75;;;;;;;;;;5472589;25;20234;-70
2024/04/11 05:40:53;;;;;;;8.15;1.60;;;;;;;;;;5449848;26;20347;-70
2024/04/11 05:43:20;;;;;;;6.68;1.77;;;;;;;;;;5467658;26;20281;-71
2024/04/11 05:45:46;;;;;;;5.40;1.05;;;;;;;;;;5463922;25;20272;-70
2024/04/11 05:48:12;;;;;;;4.95;1.40;;;;;;;;;;5483152;26;20593;-70
2024/04/11 05:50:38;;;;;;;4.68;1.23;;;;;;;;;;5486544;26;20707;-70
2024/04/11 05:53:06;;;;;;;8.65;1.52;;;;;;;;;;5496480;26;20247;-70
2024/04/11 05:55:32;;;;;;;5.03;1.17;;;;;;;;;;5493691;26;20233;-69
2024/04/11 05:57:58;;;;;;;7.63;1.60;;;;;;;;;;5482635;26;20324;-69
2024/04/11 06:00:29;;;;;;;6.13;1.48;;;;;;;;;;5470679;26;20249;-69
2024/04/11 06:03:08;;;;;;;7.07;1.58;;;;;;;;;;5479919;26;20670;-70
2024/04/11 06:05:34;;;;;;;6.85;1.58;;;;;;;;;;5472033;26;20361;-70
2024/04/11 06:07:59;;;;;;;9.27;1.50;;;;;;;;;;5468855;26;20765;-70
2024/04/11 06:10:25;;;;;;;8.63;1.40;;;;;;;;;;5453353;26;20293;-70
2024/04/11 06:12:51;;;;;;;4.50;1.45;;;;;;;;;;4716612;25;10000339;-70
2024/04/11 06:15:19;;;;;;;10.13;1.80;;;;;;;;;;5446265;26;20246;-70
2024/04/11 06:17:45;;;;;;;11.45;1.90;;;;;;;;;;5466637;26;20311;-70
2024/04/11 06:20:15;;;;;;;12.20;2.38;;;;;;;;;;5461494;26;20251;-71
2024/04/11 06:22:52;;;;;;;8.00;1.70;;;;;;;;;;5493261;26;20573;-70
2024/04/11 06:25:20;;;;;;;7.57;1.70;;;;;;;;;;5497238;26;20349;-71
2024/04/11 06:27:46;;;;;;;7.18;1.40;;;;;;;;;;5457061;26;20234;-71
2024/04/11 06:30:14;;;;;;;7.63;1.65;;;;;;;;;;5444542;26;20764;-71
2024/04/11 06:32:40;;;;;;;8.07;1.73;;;;;;;;;;5474956;26;20283;-69
2024/04/11 06:35:08;;;;;;;8.45;2.05;;;;;;;;;;5452752;26;20645;-70
2024/04/11 06:37:37;;;;;;;6.95;1.35;;;;;;;;;;5457234;26;20326;-70
2024/04/11 06:40:11;;;;;;;7.50;1.65;;;;;;;;;;5472157;26;20313;-71
2024/04/11 06:42:46;;;;;;;7.53;2.03;;;;;;;;;;5472358;26;20249;-70
2024/04/11 06:45:23;;;;;;;10.45;1.63;;;;;;;;;;5469971;26;20270;-70
2024/04/11 06:47:49;;;;;;;5.85;1.67;;;;;;;;;;5487923;26;20244;-70
2024/04/11 06:50:14;;;;;;;8.70;2.20;;;;;;;;;;5478566;26;20296;-68
2024/04/11 06:52:42;;;;;;;7.40;1.63;;;;;;;;;;5477192;26;20319;-70
2024/04/11 06:55:08;;;;;;;6.18;1.60;;;;;;;;;;5480802;26;20324;-70
2024/04/11 06:57:37;;;;;;;9.10;1.52;;;;;;;;;;5454149;26;20233;-70
2024/04/11 07:00:14;;;;;;;12.95;1.95;;;;;;;;;;5476366;26;20272;-69
2024/04/11 07:02:44;;;;;;;6.95;1.63;;;;;;;;;;5470561;26;20715;-69
2024/04/11 07:05:13;;;;;;;8.95;2.10;;;;;;;;;;5464106;26;20346;-69
2024/04/11 07:07:39;;;;;;;7.90;1.70;;;;;;;;;;5470643;26;20756;-69
2024/04/11 07:10:15;;;;;;;10.68;1.88;;;;;;;;;;5469419;26;20316;-69
2024/04/11 07:12:42;;;;;;;12.40;2.05;;;;;;;;;;5470093;26;20751;-69
2024/04/11 07:15:10;;;;;;;7.28;1.67;;;;;;;;;;5483107;26;20655;-70
2024/04/11 07:17:41;;;;;;;6.63;2.10;;;;;;;;;;5457608;26;20278;-70
2024/04/11 07:20:09;;;;;;;7.53;2.03;;;;;;;;;;5449996;26;20281;-70
2024/04/11 07:22:44;;;;;;;10.30;2.38;;;;;;;;;;5472080;26;20410;-69
2024/04/11 07:25:13;;;;;;;11.75;2.30;;;;;;;;;;5450224;26;20277;-70
2024/04/11 07:27:40;;;;;;;8.88;2.15;;;;;;;;;;5467205;26;20576;-70
2024/04/11 07:30:11;;;;;;;6.82;2.28;;;;;;;;;;5455678;26;20241;-71
2024/04/11 07:32:40;;;;;;;6.55;2.50;;;;;;;;;;5468591;26;20716;-73
2024/04/11 07:35:06;;;;;;;8.05;2.28;;;;;;;;;;5472896;26;20766;-74
2024/04/11 07:37:32;;;;;;;8.15;3.08;;;;;;;;;;5477962;26;20254;-72
2024/04/11 07:40:00;;;;;;;9.85;2.20;;;;;;;;;;5470617;26;20260;-74
2024/04/11 07:42:47;;;;;;;9.68;2.38;;;;;;;;;;5483527;26;20386;-71
2024/04/11 07:45:17;;;;;;;8.55;2.40;;;;;;;;;;5464233;26;20275;-72
2024/04/11 07:47:43;;;;;;;5.30;2.10;;;;;;;;;;5466034;26;20283;-72
2024/04/11 07:50:11;;;;;;;9.52;2.38;;;;;;;;;;5471245;26;20642;-71
2024/04/11 07:52:37;;;;;;;8.00;2.53;;;;;;;;;;5489227;26;20313;-71
2024/04/11 07:55:04;;;;;;;8.00;2.28;;;;;;;;;;5467224;26;20284;-72
2024/04/11 07:57:30;;;;;;;14.43;2.70;;;;;;;;;;5470711;26;20739;-71
2024/04/11 08:00:00;;;;;;;5.80;2.30;;;;;;;;;;5462770;26;20246;-71
2024/04/11 08:02:26;;;;;;;9.45;2.30;;;;;;;;;;5463164;26;20274;-70
2024/04/11 08:04:52;;;;;;;11.82;1.92;;;;;;;;;;5484826;26;20225;-70
2024/04/11 08:07:17;;;;;;;8.38;2.33;;;;;;;;;;5480289;26;20263;-70
2024/04/11 08:09:55;;;;;;;7.53;2.00;;;;;;;;;;5486322;26;20288;-69
2024/04/11 08:12:20;;;;;;;12.90;2.22;;;;;;;;;;5487742;26;20278;-69
2024/04/11 08:14:46;;;;;;;7.32;2.13;;;;;;;;;;5462492;26;20238;-69
2024/04/11 08:17:13;;;;;;;7.60;2.45;;;;;;;;;;5485618;26;20350;-69
2024/04/11 08:19:39;;;;;;;10.63;2.15;;;;;;;;;;5496986;26;20693;-69
2024/04/11 08:22:05;;;;;;;8.30;2.08;;;;;;;;;;5479373;25;20238;-70
2024/04/11 08:24:31;;;;;;;7.82;2.13;;;;;;;;;;5471036;26;20236;-69
2024/04/11 08:26:57;;;;;;;8.30;2.33;;;;;;;;;;5468953;26;20261;-69
2024/04/11 08:29:23;;;;;;;8.38;2.30;;;;;;;;;;5467257;26;20325;-69
2024/04/11 08:31:49;;;;;;;7.57;2.15;;;;;;;;;;5485418;26;20229;-69
2024/04/11 08:34:14;;;;;;;6.60;2.05;;;;;;;;;;5471238;26;20580;-69
2024/04/11 08:36:40;;;;;;;10.98;2.25;;;;;;;;;;5456983;26;20229;-70
2024/04/11 08:39:09;;;;;;;8.45;1.80;;;;;;;;;;5446960;26;20284;-69
2024/04/11 08:41:36;;;;;;;12.77;2.05;;;;;;;;;;5480709;26;20233;-69
2024/04/11 08:44:02;;;;;;;6.22;1.95;;;;;;;;;;5461792;26;20234;-69
2024/04/11 08:46:28;;;;;;;9.30;2.10;;;;;;;;;;5477159;26;20277;-70
2024/04/11 08:48:53;;;;;;;9.63;1.90;;;;;;;;;;5482996;26;20232;-69
2024/04/11 08:51:21;;;;;;;4.32;2.03;;;;;;;;;;5453617;26;20230;-70
2024/04/11 08:53:48;;;;;;;8.82;2.30;;;;;;;;;;5481998;26;20232;-70
2024/04/11 08:56:16;;;;;;;5.57;1.85;;;;;;;;;;5453141;26;20238;-70
2024/04/11 08:58:47;;;;;;;6.10;2.00;;;;;;;;;;5455813;26;20263;-70
2024/04/11 09:01:16;;;;;;;9.40;2.30;;;;;;;;;;5475496;26;20245;-70
2024/04/11 09:03:41;;;;;;;10.30;2.50;;;;;;;;;;5441727;26;20347;-70
2024/04/11 09:06:11;;;;;;;8.75;2.40;;;;;;;;;;5450244;26;20756;-70
2024/04/11 09:08:37;;;;;;;11.27;2.47;;;;;;;;;;5482519;26;20237;-70
2024/04/11 09:11:04;;;;;;;7.38;2.25;;;;;;;;;;5470338;26;20682;-70
2024/04/11 09:13:30;;;;;;;9.40;2.22;;;;;;;;;;5485088;26;20232;-70
2024/04/11 09:16:05;;;;;;;7.18;2.28;;;;;;;;;;5477854;26;20290;-70
2024/04/11 09:18:32;;;;;;;6.15;2.25;;;;;;;;;;5472487;26;20243;-72
2024/04/11 09:21:04;;;;;;;7.00;2.53;;;;;;;;;;5454312;26;20411;-70
2024/04/11 09:23:48;;;;;;;6.15;2.65;;;;;;;;;;5473067;26;20298;-70
2024/04/11 09:26:14;;;;;;;10.25;2.50;;;;;;;;;;5478908;26;20271;-70
2024/04/11 09:28:40;;;;;;;7.00;2.58;;;;;;;;;;5479260;26;20342;-70
2024/04/11 09:31:07;;;;;;;11.38;2.75;;;;;;;;;;5459504;26;20233;-70
2024/04/11 09:33:35;;;;;;;8.38;2.85;;;;;;;;;;5473666;26;20237;-69
2024/04/11 09:36:03;;;;;;;8.27;2.50;;;;;;;;;;5459004;26;20378;-69
2024/04/11 09:38:30;;;;;;;9.88;3.22;;;;;;;;;;5462068;26;20242;-70
2024/04/11 09:40:55;;;;;;;13.88;3.47;;;;;;;;;;5456243;26;20510;-69
2024/04/11 09:43:27;;;;;;;5.70;2.60;;;;;;;;;;5456680;26;20260;-69
2024/04/11 09:45:56;;;;;;;8.38;2.83;;;;;;;;;;5472629;26;20246;-70
2024/04/11 09:48:24;;;;;;;12.57;3.92;;;;;;;;;;5457912;26;20289;-69
2024/04/11 09:50:52;;;;;;;13.60;3.47;;;;;;;;;;5462559;26;20244;-69
2024/04/11 09:53:26;;;;;;;12.38;3.83;;;;;;;;;;5460693;26;20238;-67
2024/04/11 09:55:59;;;;;;;7.05;2.92;;;;;;;;;;5447840;26;20241;-69
2024/04/11 09:58:28;;;;;;;9.70;3.67;;;;;;;;;;5452059;26;20265;-69
2024/04/11 10:01:05;;;;;;;7.47;3.47;;;;;;;;;;5476146;26;20422;-69
2024/04/11 10:03:40;;;;;;;9.85;3.83;;;;;;;;;;5474461;26;20228;-69
2024/04/11 10:06:20;;;;;;;12.75;4.68;;;;;;;;;;5466700;26;20238;-70
2024/04/11 10:08:47;;;;;;;9.32;3.65;;;;;;;;;;5475706;26;20300;-69
2024/04/11 10:11:17;;;;;;;9.05;3.60;;;;;;;;;;5481765;26;20284;-69
2024/04/11 10:13:44;;;;;;;8.30;4.38;;;;;;;;;;5478666;26;20292;-68
2024/04/11 10:16:22;;;;;;;11.25;4.50;;;;;;;;;;5481841;26;20341;-68
2024/04/11 10:19:04;;;;;;;9.70;4.25;;;;;;;;;;5469041;26;20249;-68
2024/04/11 10:21:32;;;;;;;9.55;4.65;;;;;;;;;;5449615;26;20765;-68
2024/04/11 10:23:58;;;;;;;9.38;4.70;;;;;;;;;;5467372;26;20228;-69
2024/04/11 10:26:34;;;;;;;11.77;4.57;;;;;;;;;;5484621;26;20240;-68
2024/04/11 10:29:18;;;;;;;8.30;4.43;;;;;;;;;;5457505;26;20236;-68
2024/04/11 10:31:44;;;;;;;10.60;5.20;;;;;;;;;;5463373;26;20272;-69
2024/04/11 10:34:19;;;;;;;14.23;4.55;;;;;;;;;;5481912;26;20249;-68
2024/04/11 10:36:53;;;;;;;12.65;5.13;;;;;;;;;;5479457;26;20739;-69
2024/04/11 10:39:19;;;;;;;10.73;4.70;;;;;;;;;;5470489;26;20309;-70
2024/04/11 10:41:45;;;;;;;11.38;5.25;;;;;;;;;;5463457;26;20245;-69
2024/04/11 10:44:11;;;;;;;8.77;4.50;;;;;;;;;;5464084;26;20242;-70
2024/04/11 10:46:38;;;;;;;11.95;4.95;;;;;;;;;;5469230;26;20276;-70
2024/04/11 10:49:15;;;;;;;12.55;4.88;;;;;;;;;;5476436;26;20299;-69
2024/04/11 10:51:44;;;;;;;12.43;5.22;;;;;;;;;;5476335;26;20240;-70
2024/04/11 10:54:09;;;;;;;13.00;5.25;;;;;;;;;;5493042;26;20263;-69
2024/04/11 10:56:41;;;;;;;11.02;5.30;;;;;;;;;;5474296;26;20245;-70
2024/04/11 10:59:12;;;;;;;11.30;5.50;;;;;;;;;;5475126;26;20279;-69
2024/04/11 11:01:41;;;;;;;14.32;5.88;;;;;;;;;;5479755;26;20764;-69
2024/04/11 11:04:07;;;;;;;16.73;5.38;;;;;;;;;;5482128;26;20237;-69
2024/04/11 11:06:39;;;;;;;11.63;5.68;;;;;;;;;;5451296;26;20325;-70
2024/04/11 11:09:12;;;;;;;11.20;6.32;;;;;;;;;;5462215;26;20304;-69
2024/04/11 11:11:40;;;;;;;15.63;6.82;;;;;;;;;;5448306;26;20273;-69
2024/04/11 11:14:08;;;;;;;11.63;6.22;;;;;;;;;;5474593;26;20318;-70
2024/04/11 11:16:37;;;;;;;9.43;5.78;;;;;;;;;;5471039;26;20294;-69
2024/04/11 11:19:04;;;;;;;10.77;5.65;;;;;;;;;;5454046;26;20238;-68
2024/04/11 11:21:32;;;;;;;11.98;5.90;;;;;;;;;;5448084;26;20233;-69
2024/04/11 11:24:01;;;;;;;15.45;6.30;;;;;;;;;;5472959;26;20273;-70
2024/04/11 11:26:35;;;;;;;13.70;6.10;;;;;;;;;;5471866;26;20286;-69
2024/04/11 11:29:06;;;;;;;15.65;5.70;;;;;;;;;;5469873;26;20272;-70
2024/04/11 11:31:36;;;;;;;11.68;6.30;;;;;;;;;;5465216;26;20277;-70
2024/04/11 11:34:09;;;;;;;12.73;5.68;;;;;;;;;;5472076;26;20230;-70
2024/04/11 11:36:47;;;;;;;17.15;6.70;;;;;;;;;;5478332;26;20237;-69
2024/04/11 11:39:18;;;;;;;12.63;6.65;;;;;;;;;;5448199;26;20711;-70
2024/04/11 11:41:47;;;;;;;15.23;6.70;;;;;;;;;;5453624;26;20259;-69
2024/04/11 11:44:21;;;;;;;17.27;6.43;;;;;;;;;;5447350;26;20321;-69
2024/04/11 11:47:05;;;;;;;11.20;6.10;;;;;;;;;;5450924;26;20254;-69
2024/04/11 11:49:36;;;;;;;13.35;6.63;;;;;;;;;;5446118;26;20237;-70
2024/04/11 11:52:03;;;;;;;14.23;7.05;;;;;;;;;;5475273;26;20283;-70
2024/04/11 11:54:34;;;;;;;16.55;6.80;;;;;;;;;;5484347;26;20292;-70
2024/04/11 11:57:39;;;;;;;12.98;6.75;;;;;;;;;;5483376;26;20732;-70
2024/04/11 11:59:54;;;;;;;12.88;6.75;;;;;;;;;;5473616;26;20234;-70
2024/04/11 12:02:23;;;;;;;13.15;6.82;;;;;;;;;;5480792;26;20229;-69
2024/04/11 12:04:52;;;;;;;14.85;5.93;;;;;;;;;;5464003;26;20237;-70
2024/04/11 12:07:19;;;;;;;14.15;6.88;;;;;;;;;;5462468;26;20289;-70
2024/04/11 12:09:44;;;;;;;13.23;7.13;;;;;;;;;;5461928;26;20577;-70
2024/04/11 12:12:30;;;;;;;15.68;6.88;;;;;;;;;;5463039;26;20515;-70
2024/04/11 12:14:55;;;;;;;13.82;7.47;;;;;;;;;;5459901;26;20312;-70
2024/04/11 12:17:23;;;;;;;18.25;7.38;;;;;;;;;;5463903;26;20261;-69
2024/04/11 12:19:52;;;;;;;15.02;7.10;;;;;;;;;;5449959;26;20745;-70
2024/04/11 12:22:18;;;;;;;15.23;8.25;;;;;;;;;;5452555;26;20610;-70
2024/04/11 12:24:50;;;;;;;13.68;7.60;;;;;;;;;;5452924;26;20245;-70
2024/04/11 12:27:17;;;;;;;15.43;8.13;;;;;;;;;;5481114;26;20240;-70
2024/04/11 12:29:43;;;;;;;11.57;7.53;;;;;;;;;;5460036;26;20325;-69
2024/04/11 12:32:17;;;;;;;13.60;8.18;;;;;;;;;;5450447;26;20447;-69
2024/04/11 12:34:45;;;;;;;16.48;8.25;;;;;;;;;;5466100;26;20229;-70
2024/04/11 12:37:15;;;;;;;15.15;8.10;;;;;;;;;;5478210;26;20591;-71
2024/04/11 12:39:45;;;;;;;11.55;7.88;;;;;;;;;;5476224;26;20762;-70
2024/04/11 12:42:17;;;;;;;14.80;8.30;;;;;;;;;;5469654;26;20232;-70
2024/04/11 12:44:45;;;;;;;12.27;8.02;;;;;;;;;;5450567;26;20609;-71
2024/04/11 12:47:15;;;;;;;12.45;7.97;;;;;;;;;;5455907;26;20233;-70
2024/04/11 12:49:47;;;;;;;13.60;8.23;;;;;;;;;;5473342;26;20236;-70
2024/04/11 12:52:15;;;;;;;16.02;8.18;;;;;;;;;;5481411;26;20237;-69
2024/04/11 12:54:41;;;;;;;13.75;8.70;;;;;;;;;;5480439;26;20236;-69
2024/04/11 12:57:06;;;;;;;14.18;8.52;;;;;;;;;;5456806;26;20594;-69
2024/04/11 12:59:34;;;;;;;12.02;8.27;;;;;;;;;;5482968;26;20283;-70
2024/04/11 13:02:00;;;;;;;12.63;8.02;;;;;;;;;;5479384;26;20258;-69
2024/04/11 13:04:32;;;;;;;11.98;8.85;;;;;;;;;;5458704;26;20233;-70
2024/04/11 13:07:13;;;;;;;12.27;8.60;;;;;;;;;;5468045;26;20747;-70
2024/04/11 13:09:54;;;;;;;12.63;8.32;;;;;;;;;;5470947;26;20271;-70
2024/04/11 13:12:20;;;;;;;11.88;7.93;;;;;;;;;;5458757;26;20308;-69
2024/04/11 13:15:08;;;;;;;10.00;8.00;;;;;;;;;;5458687;26;20743;-69
2024/04/11 13:17:35;;;;;;;9.60;8.23;;;;;;;;;;5461031;26;20667;-69
2024/04/11 13:20:11;;;;;;;10.73;6.82;;;;;;;;;;5468892;26;20240;-70
2024/04/11 13:22:41;;;;;;;11.80;8.43;;;;;;;;;;5458151;26;20229;-70
2024/04/11 13:25:17;;;;;;;11.10;8.00;;;;;;;;;;5467109;26;20233;-69
2024/04/11 13:27:47;;;;;;;16.00;8.38;;;;;;;;;;5471527;26;20232;-70
2024/04/11 13:30:13;;;;;;;15.40;8.25;;;;;;;;;;5458255;26;20240;-70
2024/04/11 13:32:40;;;;;;;11.23;8.07;;;;;;;;;;5487219;26;20233;-70
2024/04/11 13:35:12;;;;;;;12.15;8.13;;;;;;;;;;5475098;26;20283;-70
2024/04/11 13:37:37;;;;;;;14.18;8.25;;;;;;;;;;5475746;26;20229;-70
2024/04/11 13:42:52;;;;;;;17.48;9.40;;;;;;;;;;5451303;26;20280;-70
2024/04/11 13:45:23;;;;;;;13.02;8.57;;;;;;;;;;5442925;26;20234;-71
2024/04/11 13:47:59;;;;;;;13.60;9.00;;;;;;;;;;5448203;26;20311;-70
2024/04/11 13:50:35;;;;;;;11.55;9.20;;;;;;;;;;5469264;26;20240;-70
2024/04/11 13:53:06;;;;;;;14.57;9.70;;;;;;;;;;5458673;26;20268;-70
2024/04/11 13:55:33;;;;;;;11.73;9.48;;;;;;;;;;5479441;26;20245;-70
2024/04/11 13:57:59;;;;;;;11.20;9.43;;;;;;;;;;5480593;26;20245;-70
2024/04/11 14:00:36;;;;;;;11.75;9.40;;;;;;;;;;5459008;26;20234;-70
2024/04/11 14:03:36;;;;;;;16.10;9.57;;;;;;;;;;5472327;26;20232;-70
2024/04/11 14:06:06;;;;;;;10.98;8.80;;;;;;;;;;5458336;26;20675;-70
2024/04/11 14:08:32;;;;;;;11.63;8.98;;;;;;;;;;5446322;26;20284;-70
2024/04/11 14:10:59;;;;;;;12.68;8.90;;;;;;;;;;5458912;26;20237;-70
2024/04/11 14:13:29;;;;;;;11.18;8.93;;;;;;;;;;5481799;26;20233;-70
2024/04/11 14:16:04;;;;;;;13.15;9.10;;;;;;;;;;5457408;26;20596;-70
2024/04/11 14:18:34;;;;;;;17.85;9.25;;;;;;;;;;5461767;26;20294;-70
2024/04/11 14:21:17;;;;;;;13.45;9.32;;;;;;;;;;5464535;26;20244;-71
2024/04/11 14:23:53;;;;;;;15.30;8.65;;;;;;;;;;5468700;26;20610;-70
2024/04/11 14:26:35;;;;;;;10.45;7.80;;;;;;;;;;5459655;26;20244;-71
2024/04/11 14:29:07;;;;;;;9.02;8.07;;;;;;;;;;5460804;26;20329;-70
2024/04/11 14:31:36;;;;;;;13.43;8.43;;;;;;;;;;5461810;26;20442;-71
2024/04/11 14:36:28;;;;;;;9.50;7.82;;;;;;;;;;5454210;26;20491;-70
2024/04/11 14:38:55;;;;;;;10.18;8.25;;;;;;;;;;5466437;26;20240;-70
2024/04/11 14:41:21;;;;;;;9.88;8.27;;;;;;;;;;5456582;26;20232;-70
2024/04/11 14:43:55;;;;;;;13.50;9.13;;;;;;;;;;5453747;26;20273;-70
2024/04/11 14:46:24;;;;;;;11.45;9.32;;;;;;;;;;5443298;26;20399;-70
2024/04/11 14:48:53;;;;;;;14.63;9.60;;;;;;;;;;5469160;26;20267;-70
2024/04/11 14:51:26;;;;;;;11.75;8.88;;;;;;;;;;5474427;26;20244;-70
2024/04/11 14:53:52;;;;;;;12.40;8.95;;;;;;;;;;5449948;26;20608;-70